Time;durP1;ratioP1;P1;durP2;ratioP2;P2;SDS_P1;SDS_P2;PMS_P1;PMS_P2;Temp;Humidity;BMP_temperature;BMP_pressure;BME280_temperature;BME280_humidity;BME280_pressure;Samples;Min_cycle;Max_cycle;Signal;HPM_P1;HPM_P2
2023/06/10 00:00:06;;;;;;;10.15;8.75;;;19.70;51.50;;;21.51;40.51;97246.41;5085380;28;20039;-40
2023/06/10 00:02:39;;;;;;;10.40;8.57;;;19.60;52.00;;;21.49;40.66;97248.53;5087225;28;20052;-40
2023/06/10 00:05:08;;;;;;;12.73;9.00;;;19.50;51.80;;;21.47;40.39;97247.94;5068612;28;20049;-40
2023/06/10 00:07:40;;;;;;;12.05;9.95;;;19.60;51.90;;;21.45;40.88;97244.66;5085466;28;20040;-40
2023/06/10 00:10:10;;;;;;;10.70;9.70;;;19.50;52.00;;;21.45;40.74;97246.56;5070055;28;20055;-40
2023/06/10 00:12:38;;;;;;;10.57;9.15;;;19.60;52.10;;;21.40;40.91;97248.06;5085639;28;20040;-39
2023/06/10 00:15:07;;;;;;;11.18;9.07;;;19.50;52.20;;;21.37;40.87;97250.44;5081894;28;20044;-39
2023/06/10 00:17:38;;;;;;;11.30;8.90;;;19.50;52.30;;;21.34;40.81;97248.19;5055688;28;20044;-39
2023/06/10 00:20:11;;;;;;;11.68;8.95;;;19.50;52.30;;;21.31;40.99;97245.97;5069068;28;20050;-39
2023/06/10 00:22:39;;;;;;;9.55;8.18;;;19.40;52.40;;;21.27;41.45;97248.34;5060311;28;20492;-39
2023/06/10 00:25:07;;;;;;;10.55;8.27;;;19.40;52.70;;;21.26;41.47;97252.09;5084894;28;20067;-40
2023/06/10 00:27:35;;;;;;;9.48;7.85;;;19.40;52.70;;;21.24;41.29;97248.81;5084943;28;20040;-40
2023/06/10 00:30:07;;;;;;;9.15;7.78;;;19.40;52.90;;;21.22;41.29;97245.50;5058659;28;20060;-40
2023/06/10 00:32:36;;;;;;;9.73;7.75;;;19.40;52.70;;;21.20;41.36;97237.63;5084116;28;20040;-40
2023/06/10 00:35:05;;;;;;;8.75;7.60;;;19.30;52.80;;;21.19;41.69;97254.09;5081753;28;20044;-40
2023/06/10 00:37:36;;;;;;;9.13;8.10;;;19.30;53.00;;;21.17;41.46;97248.09;5081289;28;20036;-40
2023/06/10 00:40:05;;;;;;;10.77;8.23;;;19.30;53.00;;;21.14;41.30;97254.81;5041499;28;20079;-40
2023/06/10 00:42:33;;;;;;;8.15;7.35;;;19.30;53.20;;;21.12;41.63;97250.72;5059847;28;20416;-40
2023/06/10 00:45:01;;;;;;;8.07;7.32;;;19.20;53.10;;;21.09;42.02;97245.78;5029215;28;20048;-40
2023/06/10 00:47:31;;;;;;;8.25;7.45;;;19.20;53.50;;;21.02;41.83;97252.13;5054238;28;20040;-40
2023/06/10 00:49:59;;;;;;;9.07;8.10;;;19.20;53.70;;;21.01;42.28;97249.66;5056290;28;20071;-39
2023/06/10 00:52:30;;;;;;;8.43;7.72;;;19.10;53.80;;;20.99;42.04;97243.66;5084811;28;20499;-40
2023/06/10 00:54:59;;;;;;;8.00;7.22;;;19.20;53.50;;;20.97;42.36;97248.50;5059011;28;20045;-40
2023/06/10 00:57:27;;;;;;;8.25;7.30;;;19.10;53.90;;;20.94;42.40;97249.00;5060199;28;20435;-40
2023/06/10 00:59:54;;;;;;;8.77;7.88;;;19.10;54.00;;;20.91;42.63;97249.44;5055494;28;20055;-40
2023/06/10 01:02:22;;;;;;;8.55;7.78;;;19.10;54.10;;;20.91;42.56;97244.03;5084577;28;20384;-40
2023/06/10 01:04:52;;;;;;;8.55;7.40;;;19.00;54.20;;;20.92;42.61;97241.09;5083337;28;20044;-39
2023/06/10 01:07:37;;;;;;;8.80;7.20;;;19.10;54.40;;;20.90;42.63;97239.69;5080830;28;20047;-40
2023/06/10 01:10:16;;;;;;;9.35;8.45;;;19.10;55.20;;;20.88;42.22;97241.78;5058398;28;20040;-40
2023/06/10 01:12:59;;;;;;;8.38;7.28;;;19.00;54.30;;;20.86;42.65;97250.19;5058331;28;20051;-40
2023/06/10 01:15:26;;;;;;;9.60;7.47;;;19.00;55.00;;;20.82;42.41;97247.13;5053713;28;20055;-40
2023/06/10 01:17:57;;;;;;;8.73;7.45;;;18.90;54.80;;;20.77;42.93;97240.75;5082784;28;20052;-40
2023/06/10 01:20:27;;;;;;;10.48;6.95;;;18.90;54.90;;;20.74;42.63;97244.75;5032958;28;20049;-40
2023/06/10 01:22:57;;;;;;;8.32;7.13;;;18.80;54.80;;;20.71;42.65;97253.34;5027318;28;20052;-40
2023/06/10 01:25:27;;;;;;;9.18;8.27;;;18.80;54.70;;;20.68;42.95;97251.09;5071918;28;20045;-40
2023/06/10 01:28:10;;;;;;;8.80;7.88;;;18.80;55.10;;;20.62;42.65;97249.34;5054378;28;20040;-40
2023/06/10 01:30:55;;;;;;;7.97;7.18;;;18.80;55.90;;;20.63;42.99;97248.31;5072250;28;20045;-40
2023/06/10 01:33:31;;;;;;;7.95;7.15;;;18.70;55.90;;;20.61;43.11;97247.72;5031765;28;20045;-40
2023/06/10 01:36:01;;;;;;;10.85;6.85;;;18.70;55.90;;;20.58;43.13;97242.72;5046626;28;20504;-40
2023/06/10 01:38:36;;;;;;;8.85;7.93;;;18.70;55.60;;;20.54;43.13;97246.97;5060913;28;20053;-40
2023/06/10 01:41:04;;;;;;;9.00;8.10;;;18.70;56.20;;;20.51;43.11;97250.97;5040297;28;20052;-40
2023/06/10 01:43:38;;;;;;;8.55;7.68;;;18.60;55.80;;;20.49;43.07;97246.84;5048621;28;20044;-40
2023/06/10 01:46:07;;;;;;;7.85;7.05;;;18.60;56.50;;;20.46;43.22;97251.66;5056861;28;20049;-40
2023/06/10 01:48:35;;;;;;;11.95;7.53;;;18.60;56.10;;;20.44;43.37;97252.97;5083503;28;20048;-40
2023/06/10 01:51:03;;;;;;;9.55;8.00;;;18.60;56.20;;;20.40;43.54;97251.78;5081733;28;20411;-40
2023/06/10 01:53:30;;;;;;;16.38;8.75;;;18.50;56.30;;;20.37;43.67;97255.75;5031054;28;20052;-39
2023/06/10 01:55:58;;;;;;;7.80;7.03;;;18.50;56.10;;;20.35;43.85;97254.34;5060238;28;20052;-39
2023/06/10 01:58:25;;;;;;;9.88;7.80;;;18.50;56.50;;;20.31;43.64;97254.00;5069027;28;20051;-39
2023/06/10 02:00:53;;;;;;;10.18;8.23;;;18.40;56.40;;;20.25;43.77;97255.75;5053635;28;20425;-39
2023/06/10 02:03:21;;;;;;;8.10;6.95;;;18.40;56.60;;;20.22;43.79;97256.22;5060388;28;20052;-40
2023/06/10 02:05:50;;;;;;;9.93;7.18;;;18.30;56.90;;;20.19;44.08;97259.38;5060504;28;20043;-40
2023/06/10 02:08:18;;;;;;;10.52;7.32;;;18.30;56.90;;;20.16;44.07;97253.59;5053247;28;20428;-40
2023/06/10 02:10:45;;;;;;;10.93;7.28;;;18.30;56.80;;;20.13;44.06;97256.78;5078769;28;20044;-40
2023/06/10 02:13:13;;;;;;;7.47;6.78;;;18.30;57.10;;;20.10;44.21;97262.66;5080393;28;20024;-40
2023/06/10 02:15:40;;;;;;;9.00;8.10;;;18.20;57.10;;;20.05;44.16;97258.75;5078989;28;20048;-40
2023/06/10 02:18:09;;;;;;;8.70;7.32;;;18.20;57.20;;;20.03;44.58;97254.66;5054974;28;20443;-40
2023/06/10 02:20:38;;;;;;;9.38;7.07;;;18.10;57.60;;;20.01;44.54;97259.47;5083277;28;20523;-40
2023/06/10 02:23:06;;;;;;;7.72;7.03;;;18.10;57.50;;;19.98;44.50;97259.91;5056324;28;20052;-40
2023/06/10 02:25:34;;;;;;;7.15;6.45;;;18.10;57.70;;;19.95;44.30;97268.47;5039321;28;20045;-40
2023/06/10 02:28:03;;;;;;;7.95;7.25;;;18.00;57.50;;;19.91;44.59;97262.72;5044016;28;20420;-40
2023/06/10 02:30:31;;;;;;;7.65;6.65;;;18.00;57.70;;;19.89;44.75;97267.53;5059595;28;20051;-40
2023/06/10 02:32:59;;;;;;;7.22;6.60;;;18.00;57.90;;;19.88;44.73;97265.06;5080239;28;20045;-40
2023/06/10 02:35:26;;;;;;;8.80;7.00;;;18.00;57.80;;;19.86;44.63;97279.59;5059926;28;20048;-40
2023/06/10 02:37:56;;;;;;;7.72;6.60;;;17.90;58.00;;;19.85;44.63;97275.28;5051966;28;20416;-40
2023/06/10 02:40:23;;;;;;;8.15;6.93;;;18.00;58.20;;;19.81;44.73;97275.94;5079424;28;20111;-40
2023/06/10 02:42:51;;;;;;;7.90;6.50;;;17.90;58.30;;;19.77;45.03;97278.28;5052969;28;20056;-40
2023/06/10 02:45:20;;;;;;;7.82;7.13;;;17.90;58.40;;;19.74;44.98;97272.53;5052793;28;20420;-40
2023/06/10 02:47:47;;;;;;;8.25;6.85;;;17.80;58.30;;;19.73;45.06;97278.97;5032725;28;20045;-40
2023/06/10 02:50:16;;;;;;;8.88;7.97;;;17.80;58.20;;;19.73;44.84;97281.66;5052008;28;20063;-40
2023/06/10 02:52:54;;;;;;;10.00;7.20;;;17.80;58.00;;;19.71;45.01;97281.88;5052853;28;20280;-40
2023/06/10 02:55:26;;;;;;;8.25;7.45;;;17.80;58.00;;;19.66;44.76;97274.47;5068470;28;20032;-40
2023/06/10 02:57:57;;;;;;;8.20;7.38;;;17.80;58.10;;;19.62;44.71;97281.38;5059813;28;20083;-40
2023/06/10 03:00:25;;;;;;;10.25;7.68;;;17.70;58.30;;;19.59;45.34;97287.22;5062227;28;20067;-40
2023/06/10 03:02:57;;;;;;;7.57;6.85;;;17.60;58.70;;;19.56;45.42;97282.28;5040867;28;20051;-40
2023/06/10 03:05:29;;;;;;;7.60;6.57;;;17.60;59.00;;;19.57;45.28;97288.50;5041307;28;20044;-40
2023/06/10 03:08:00;;;;;;;8.85;7.32;;;17.70;58.80;;;19.56;45.49;97292.25;5056727;28;20056;-40
2023/06/10 03:10:28;;;;;;;7.65;6.43;;;17.70;58.80;;;19.56;45.20;97286.84;5064080;28;20052;-40
2023/06/10 03:12:56;;;;;;;7.43;6.72;;;17.70;58.60;;;19.55;45.44;97290.59;5065119;28;20048;-40
2023/06/10 03:15:25;;;;;;;7.10;6.40;;;17.60;58.50;;;19.54;45.32;97291.66;5056750;28;20423;-40
2023/06/10 03:17:53;;;;;;;8.25;7.38;;;17.60;58.60;;;19.53;45.39;97287.31;5057254;28;20036;-40
2023/06/10 03:20:21;;;;;;;7.82;6.80;;;17.60;58.60;;;19.52;45.45;97291.88;5064891;28;20049;-40
2023/06/10 03:22:51;;;;;;;8.00;7.03;;;17.60;58.70;;;19.52;45.38;97294.56;5056289;28;20060;-40
2023/06/10 03:25:20;;;;;;;7.32;6.60;;;17.60;58.70;;;19.51;45.32;97298.34;5058937;28;20052;-40
2023/06/10 03:27:51;;;;;;;7.93;7.13;;;17.60;58.60;;;19.51;45.27;97297.50;5085147;28;20048;-40
2023/06/10 03:30:19;;;;;;;7.63;6.55;;;17.60;58.60;;;19.51;45.49;97297.50;5064896;28;20515;-40
2023/06/10 03:32:48;;;;;;;9.05;6.90;;;17.60;58.60;;;19.48;45.68;97301.47;5056338;28;20044;-40
2023/06/10 03:35:18;;;;;;;7.95;6.72;;;17.60;58.90;;;19.48;45.86;97307.72;5058716;28;20052;-40
2023/06/10 03:37:45;;;;;;;8.52;7.22;;;17.60;59.30;;;19.48;45.58;97315.81;5085922;28;20063;-40
2023/06/10 03:40:14;;;;;;;7.97;6.63;;;17.60;59.20;;;19.47;45.76;97305.25;5051816;28;20037;-40
2023/06/10 03:42:45;;;;;;;7.72;6.93;;;17.60;59.00;;;19.44;45.64;97311.94;5055795;28;20509;-40
2023/06/10 03:45:15;;;;;;;7.22;6.53;;;17.60;59.00;;;19.44;45.58;97311.06;5054930;28;20059;-40
2023/06/10 03:47:42;;;;;;;8.43;6.70;;;17.50;58.90;;;19.40;45.79;97305.31;5055109;28;20397;-40
2023/06/10 03:50:13;;;;;;;8.20;7.35;;;17.50;59.00;;;19.39;45.66;97308.25;5056360;28;20052;-40
2023/06/10 03:52:45;;;;;;;10.07;7.32;;;17.50;59.90;;;19.36;45.90;97311.38;5055202;28;20056;-40
2023/06/10 03:55:13;;;;;;;6.88;6.18;;;17.50;59.40;;;19.33;46.10;97312.66;5082650;28;20032;-40
2023/06/10 03:57:44;;;;;;;10.52;7.35;;;17.50;59.70;;;19.34;46.06;97313.50;5055339;28;20056;-40
2023/06/10 04:00:12;;;;;;;7.90;7.10;;;17.50;59.50;;;19.37;45.97;97318.44;5056676;28;20056;-40
2023/06/10 04:02:47;;;;;;;7.80;7.05;;;17.60;59.40;;;19.37;46.24;97321.16;5088041;28;20050;-40
2023/06/10 04:05:23;;;;;;;7.50;6.68;;;17.50;59.60;;;19.36;46.13;97323.00;5058696;28;20052;-40
2023/06/10 04:07:52;;;;;;;8.50;7.65;;;17.60;59.40;;;19.35;46.13;97315.97;5084953;28;20052;-40
2023/06/10 04:10:20;;;;;;;7.25;6.18;;;17.50;59.70;;;19.35;46.30;97323.22;5065225;28;20047;-40
2023/06/10 04:12:47;;;;;;;7.43;6.72;;;17.50;59.60;;;19.34;46.33;97314.31;5055463;28;20048;-40
2023/06/10 04:15:15;;;;;;;8.40;7.30;;;17.50;59.70;;;19.35;46.41;97315.13;5055657;28;20049;-40
2023/06/10 04:17:43;;;;;;;7.60;6.80;;;17.60;59.80;;;19.37;46.55;97318.44;5055389;28;20044;-40
2023/06/10 04:20:13;;;;;;;6.97;6.28;;;17.60;59.80;;;19.39;46.55;97319.03;5038995;28;20059;-40
2023/06/10 04:22:44;;;;;;;6.78;6.07;;;17.60;59.70;;;19.39;46.74;97314.47;5055381;28;20048;-40
2023/06/10 04:25:12;;;;;;;8.93;6.45;;;17.70;60.20;;;19.42;46.81;97321.28;5082224;28;20523;-40
2023/06/10 04:27:41;;;;;;;9.13;6.78;;;17.70;60.30;;;19.43;46.67;97322.94;5061388;28;20060;-40
2023/06/10 04:30:11;;;;;;;7.18;6.57;;;17.70;60.00;;;19.44;46.66;97325.41;5055938;28;20055;-40
2023/06/10 04:32:39;;;;;;;7.93;7.13;;;17.70;60.20;;;19.47;46.56;97326.84;5062054;28;20053;-40
2023/06/10 04:35:13;;;;;;;7.15;6.47;;;17.70;59.90;;;19.50;46.78;97326.38;5039996;28;20041;-40
2023/06/10 04:37:42;;;;;;;7.55;6.68;;;17.70;60.40;;;19.51;46.73;97327.22;5044930;28;20060;-41
2023/06/10 04:40:11;;;;;;;10.07;7.10;;;17.70;60.30;;;19.51;46.89;97328.03;5064387;28;20059;-40
2023/06/10 04:42:39;;;;;;;7.45;6.47;;;17.70;60.30;;;19.54;46.80;97326.75;5062407;28;20083;-40
2023/06/10 04:45:08;;;;;;;8.98;6.63;;;17.80;60.20;;;19.57;46.97;97329.00;5054934;28;20527;-40
2023/06/10 04:47:36;;;;;;;6.57;5.97;;;17.90;60.30;;;19.59;46.88;97335.00;5054142;28;20052;-40
2023/06/10 04:50:06;;;;;;;6.97;6.32;;;17.90;60.20;;;19.62;47.07;97329.16;5047195;28;20045;-40
2023/06/10 04:52:33;;;;;;;6.63;5.90;;;17.90;60.40;;;19.67;47.45;97334.69;5046968;28;20505;-40
2023/06/10 04:55:01;;;;;;;6.50;5.82;;;18.00;60.70;;;19.71;47.38;97332.34;5054642;28;20040;-40
2023/06/10 04:57:29;;;;;;;6.93;6.18;;;18.10;61.00;;;19.74;47.25;97332.75;5080524;28;20040;-40
2023/06/10 04:59:57;;;;;;;7.55;6.82;;;18.10;60.70;;;19.78;47.62;97328.56;5080871;28;20049;-40
2023/06/10 05:02:24;;;;;;;6.78;6.07;;;18.20;60.70;;;19.83;47.29;97331.41;5083631;28;20044;-40
2023/06/10 05:04:53;;;;;;;6.20;5.60;;;18.30;60.50;;;19.85;47.37;97342.81;5084355;28;20036;-40
2023/06/10 05:07:20;;;;;;;7.25;5.57;;;18.30;60.40;;;19.89;47.71;97332.38;5082259;28;20044;-40
2023/06/10 05:09:48;;;;;;;6.28;5.68;;;18.40;60.70;;;19.94;47.60;97334.38;5080928;28;20041;-40
2023/06/10 05:12:16;;;;;;;5.88;5.38;;;18.40;60.40;;;19.97;47.51;97333.94;5056002;28;20056;-40
2023/06/10 05:14:44;;;;;;;6.45;5.85;;;18.50;60.20;;;20.02;47.21;97336.75;5084576;28;20040;-40
2023/06/10 05:17:12;;;;;;;7.38;5.53;;;18.50;59.90;;;20.04;47.10;97335.47;5083091;28;20048;-40
2023/06/10 05:19:41;;;;;;;6.68;5.85;;;18.60;59.50;;;20.11;47.33;97342.66;5054881;28;20405;-40
2023/06/10 05:22:09;;;;;;;5.95;5.35;;;18.70;59.70;;;20.16;47.33;97345.50;5080702;28;20044;-40
2023/06/10 05:24:37;;;;;;;6.50;5.82;;;18.70;59.60;;;20.20;47.23;97349.38;5068281;28;20051;-40
2023/06/10 05:27:06;;;;;;;7.55;5.85;;;18.80;59.50;;;20.21;47.39;97346.44;5083760;28;20059;-40
2023/06/10 05:29:34;;;;;;;7.30;6.60;;;18.80;59.50;;;20.25;46.94;97350.34;5080581;28;20052;-40
2023/06/10 05:32:03;;;;;;;6.53;5.82;;;18.80;59.40;;;20.31;47.14;97351.28;5080618;28;20044;-41
2023/06/10 05:34:32;;;;;;;7.50;6.38;;;18.80;59.40;;;20.33;46.75;97349.19;5057283;28;20048;-40
2023/06/10 05:36:59;;;;;;;6.40;5.50;;;18.80;58.90;;;20.36;46.90;97353.31;5083570;28;20059;-40
2023/06/10 05:39:27;;;;;;;6.88;6.15;;;18.90;59.20;;;20.37;46.97;97358.47;5081244;28;20044;-40
2023/06/10 05:41:54;;;;;;;5.95;5.35;;;19.00;59.10;;;20.43;47.13;97352.16;5080455;28;20041;-40
2023/06/10 05:44:22;;;;;;;7.18;5.88;;;19.00;59.10;;;20.46;47.04;97361.69;5081859;28;20051;-40
2023/06/10 05:46:50;;;;;;;7.53;6.53;;;19.00;59.30;;;20.49;46.89;97361.25;5060204;28;20052;-40
2023/06/10 05:49:18;;;;;;;7.05;5.70;;;19.10;59.30;;;20.52;46.93;97360.75;5054978;28;20040;-40
2023/06/10 05:51:45;;;;;;;6.78;5.85;;;19.10;59.10;;;20.54;47.21;97361.34;5083624;28;20047;-40
2023/06/10 05:54:13;;;;;;;6.35;5.72;;;19.10;59.00;;;20.58;46.89;97359.00;5083656;28;20044;-40
2023/06/10 05:56:41;;;;;;;6.30;5.63;;;19.20;59.00;;;20.63;46.87;97361.88;5053772;28;20450;-40
2023/06/10 05:59:08;;;;;;;8.32;6.47;;;19.20;59.10;;;20.69;46.71;97370.94;5076736;28;20412;-40
2023/06/10 06:01:36;;;;;;;7.00;6.30;;;19.30;60.00;;;20.73;47.14;97362.13;5063451;28;20499;-40
2023/06/10 06:04:04;;;;;;;10.73;6.45;;;19.30;59.40;;;20.74;46.96;97362.94;5083843;28;20424;-41
2023/06/10 06:06:31;;;;;;;12.30;6.45;;;19.40;59.30;;;20.81;47.19;97374.50;5055108;28;20055;-40
2023/06/10 06:08:59;;;;;;;7.68;6.55;;;19.30;59.40;;;20.85;47.28;97365.66;5083451;28;20037;-40
2023/06/10 06:11:27;;;;;;;6.88;6.15;;;19.40;59.40;;;20.85;47.10;97376.47;5081692;28;20044;-40
2023/06/10 06:13:54;;;;;;;7.72;6.47;;;19.50;59.10;;;20.89;46.85;97367.91;5079777;28;20416;-39
2023/06/10 06:16:22;;;;;;;7.28;5.75;;;19.50;58.90;;;20.95;46.76;97369.69;5080097;28;20059;-40
2023/06/10 06:18:50;;;;;;;6.47;5.85;;;19.60;58.90;;;20.97;47.08;97362.97;5083337;28;20063;-40
2023/06/10 06:21:17;;;;;;;7.20;6.50;;;19.60;58.90;;;21.03;46.84;97374.72;5082628;28;20047;-40
2023/06/10 06:23:45;;;;;;;8.13;6.07;;;19.70;58.90;;;21.06;46.87;97376.16;5079541;28;20044;-40
2023/06/10 06:26:13;;;;;;;7.30;6.47;;;19.70;59.00;;;21.08;47.55;97377.56;5079299;28;20052;-40
2023/06/10 06:28:40;;;;;;;8.98;7.13;;;19.70;59.10;;;21.09;47.23;97381.09;5066766;28;20048;-41
2023/06/10 06:31:08;;;;;;;6.80;6.20;;;19.80;59.00;;;21.12;47.39;97375.22;5083601;28;20379;-40
2023/06/10 06:33:36;;;;;;;7.53;6.00;;;19.90;58.90;;;21.17;47.54;97373.47;5080049;28;20063;-40
2023/06/10 06:36:04;;;;;;;6.95;6.25;;;20.00;58.80;;;21.21;47.15;97380.03;5078038;28;20045;-40
2023/06/10 06:38:31;;;;;;;7.97;6.72;;;20.00;58.80;;;21.28;47.22;97379.09;5081618;28;20053;-40
2023/06/10 06:41:02;;;;;;;6.95;6.22;;;20.00;58.90;;;21.29;47.23;97381.56;5058309;28;20056;-40
2023/06/10 06:43:30;;;;;;;8.20;6.85;;;20.10;58.90;;;21.35;47.57;97379.81;5054735;28;20056;-41
2023/06/10 06:46:10;;;;;;;7.60;6.80;;;20.10;59.00;;;21.42;47.26;97375.06;5081476;28;20384;-41
2023/06/10 06:48:38;;;;;;;6.40;5.43;;;20.20;59.80;;;21.48;47.45;97378.75;5055156;28;20048;-40
2023/06/10 06:51:06;;;;;;;7.25;6.10;;;20.20;58.90;;;21.53;47.32;97378.88;5083103;28;20048;-41
2023/06/10 06:53:34;;;;;;;7.47;6.63;;;20.30;58.70;;;21.57;47.27;97380.03;5079698;28;20044;-41
2023/06/10 06:56:02;;;;;;;7.40;6.20;;;20.40;58.60;;;21.65;47.00;97378.84;5051658;28;20051;-40
2023/06/10 06:58:30;;;;;;;8.07;5.82;;;20.40;58.50;;;21.68;46.75;97379.19;5053027;28;20067;-40
2023/06/10 07:00:58;;;;;;;9.35;6.40;;;20.50;58.40;;;21.77;47.24;97385.03;5070979;28;20056;-40
2023/06/10 07:03:26;;;;;;;7.32;5.78;;;20.50;58.30;;;21.82;47.17;97385.97;5052556;28;20052;-40
2023/06/10 07:05:53;;;;;;;7.38;6.05;;;20.60;58.40;;;21.89;47.00;97390.44;5051792;28;20056;-40
2023/06/10 07:08:21;;;;;;;7.63;5.85;;;20.70;58.50;;;21.93;47.31;97383.50;5069892;28;20417;-40
2023/06/10 07:10:49;;;;;;;7.50;6.72;;;20.70;58.50;;;21.97;46.98;97385.47;5070881;28;20052;-40
2023/06/10 07:13:16;;;;;;;6.68;5.78;;;20.80;58.30;;;22.04;47.29;97385.31;5079339;28;20041;-40
2023/06/10 07:15:44;;;;;;;7.00;5.95;;;20.80;58.50;;;22.11;46.98;97394.13;5078808;28;20036;-41
2023/06/10 07:18:11;;;;;;;7.22;5.65;;;20.90;58.30;;;22.17;46.81;97389.66;5079057;28;20037;-44
2023/06/10 07:20:39;;;;;;;5.90;4.93;;;21.00;58.00;;;22.22;46.40;97389.75;5081915;28;20044;-42
2023/06/10 07:23:07;;;;;;;6.30;4.88;;;21.00;57.60;;;22.27;46.68;97389.84;5082672;28;20036;-42
2023/06/10 07:25:34;;;;;;;5.18;4.68;;;21.00;57.70;;;22.30;46.32;97381.25;5080060;28;20103;-42
2023/06/10 07:28:17;;;;;;;6.22;5.07;;;21.10;57.70;;;22.36;46.56;97387.59;5078624;28;20518;-42
2023/06/10 07:30:45;;;;;;;5.90;4.88;;;21.20;57.40;;;22.42;46.30;97382.00;5082390;28;20630;-43
2023/06/10 07:33:12;;;;;;;6.20;4.82;;;21.20;57.30;;;22.47;46.46;97380.44;5082467;28;20040;-42
2023/06/10 07:35:42;;;;;;;7.13;6.00;;;21.30;57.30;;;22.51;46.33;97390.59;5079370;28;20055;-42
2023/06/10 07:38:10;;;;;;;6.00;5.00;;;21.30;57.40;;;22.56;46.32;97382.50;5078784;28;20531;-43
2023/06/10 07:40:38;;;;;;;7.25;5.65;;;21.40;57.40;;;22.62;46.43;97386.16;5053019;28;20118;-42
2023/06/10 07:43:05;;;;;;;7.25;6.25;;;21.50;57.40;;;22.66;46.58;97384.59;5086332;28;20047;-41
2023/06/10 07:45:33;;;;;;;6.45;5.85;;;21.50;57.30;;;22.73;46.60;97381.72;5084445;28;20036;-43
2023/06/10 07:48:00;;;;;;;7.50;5.75;;;21.60;57.60;;;22.78;46.50;97381.81;5081999;28;20044;-43
2023/06/10 07:50:28;;;;;;;6.65;5.90;;;21.60;57.30;;;22.83;46.17;97387.31;5082980;28;20040;-43
2023/06/10 07:52:56;;;;;;;6.30;5.70;;;21.70;57.20;;;22.87;46.31;97384.94;5074513;28;20060;-42
2023/06/10 07:55:25;;;;;;;6.97;5.70;;;21.80;57.30;;;22.92;46.10;97385.03;5063344;28;20040;-42
2023/06/10 07:57:54;;;;;;;7.00;5.30;;;21.70;56.80;;;22.96;46.02;97381.56;5068008;28;20476;-41
2023/06/10 08:00:21;;;;;;;6.30;5.60;;;21.80;56.80;;;22.99;45.59;97375.66;5067874;28;20040;-42
2023/06/10 08:02:50;;;;;;;8.90;5.93;;;21.80;56.40;;;23.03;45.51;97377.88;5057705;28;20059;-43
2023/06/10 08:05:18;;;;;;;6.70;5.50;;;21.90;56.40;;;23.06;45.82;97382.84;5059906;28;20045;-60
2023/06/10 08:07:45;;;;;;;5.82;5.22;;;21.90;56.70;;;23.10;45.60;97386.69;5064757;28;20408;-60
2023/06/10 08:10:13;;;;;;;6.20;5.28;;;21.90;56.30;;;23.14;45.37;97383.22;5065969;28;20412;-60
2023/06/10 08:12:41;;;;;;;7.55;5.60;;;22.00;56.00;;;23.21;45.23;97385.78;5045465;28;20496;-60
2023/06/10 08:15:09;;;;;;;6.20;5.60;;;22.00;55.60;;;23.27;45.40;97386.69;5062949;28;20410;-60
2023/06/10 08:17:38;;;;;;;6.90;5.68;;;22.10;55.80;;;23.31;44.85;97383.22;5066330;28;20546;-60
2023/06/10 08:20:07;;;;;;;7.28;6.22;;;22.20;55.30;;;23.33;45.32;97370.19;5049930;28;20040;-60
2023/06/10 08:22:34;;;;;;;6.75;6.05;;;22.20;55.40;;;23.40;45.05;97383.63;5065598;28;20059;-60
2023/06/10 08:25:02;;;;;;;7.28;6.60;;;22.30;55.50;;;23.44;44.98;97387.47;5068177;28;20044;-60
2023/06/10 08:27:30;;;;;;;6.78;5.65;;;22.40;55.20;;;23.48;45.14;97388.63;5067903;28;20059;-60
2023/06/10 08:30:00;;;;;;;6.75;5.80;;;22.30;55.40;;;23.52;44.95;97386.22;5064858;28;20051;-60
2023/06/10 08:32:30;;;;;;;8.40;6.50;;;22.40;55.50;;;23.59;45.04;97381.41;5067514;28;20041;-60
2023/06/10 08:34:57;;;;;;;7.28;6.55;;;22.50;55.40;;;23.62;44.82;97388.25;5068657;28;20036;-60
2023/06/10 08:37:25;;;;;;;6.93;6.10;;;22.50;54.80;;;23.63;44.83;97384.44;5068763;28;20036;-60
2023/06/10 08:39:53;;;;;;;7.90;5.97;;;22.50;55.00;;;23.65;44.33;97383.16;5063056;28;20049;-61
2023/06/10 08:42:42;;;;;;;6.88;5.68;;;22.60;54.40;;;23.66;44.44;97382.06;5054010;28;20040;-60
2023/06/10 08:45:18;;;;;;;6.40;5.80;;;22.60;54.40;;;23.70;44.33;97382.38;5060098;28;20098;-60
2023/06/10 08:47:50;;;;;;;6.78;6.10;;;22.60;54.30;;;23.72;44.14;97375.59;5062016;28;20060;-60
2023/06/10 08:50:19;;;;;;;7.32;6.05;;;22.60;54.10;;;23.77;44.32;97377.59;5033595;28;20045;-60
2023/06/10 08:52:52;;;;;;;9.23;5.97;;;22.60;54.40;;;23.83;44.06;97382.03;5042904;28;20096;-60
2023/06/10 08:55:35;;;;;;;;;;;22.70;54.30;;;23.90;44.01;97382.66;5051490;28;20393;-61
2023/06/10 08:58:04;;;;;;;5.88;5.28;;;22.70;53.00;;;23.98;43.44;97378.66;5059935;28;20372;-61
2023/06/10 09:00:33;;;;;;;6.65;6.00;;;22.80;53.60;;;24.01;43.74;97380.06;5054092;28;20037;-60
2023/06/10 09:03:03;;;;;;;6.82;6.22;;;22.80;53.60;;;24.04;43.67;97374.94;5047776;28;20032;-61
2023/06/10 09:05:36;;;;;;;6.00;5.38;;;22.80;53.90;;;24.11;43.81;97377.47;5059910;28;20044;-61
2023/06/10 09:08:09;;;;;;;7.75;7.00;;;23.00;53.70;;;24.17;43.26;97371.84;5079913;28;20040;-61
2023/06/10 09:10:36;;;;;;;6.55;5.95;;;23.00;52.90;;;24.22;43.16;97365.63;5081435;28;20511;-60
2023/06/10 09:13:04;;;;;;;6.20;5.60;;;23.10;52.70;;;24.28;43.12;97372.75;5083737;28;20044;-60
2023/06/10 09:15:31;;;;;;;6.50;5.72;;;23.10;52.70;;;24.32;42.88;97367.63;5059013;28;20476;-61
2023/06/10 09:18:00;;;;;;;6.28;5.38;;;23.20;52.60;;;24.38;42.93;97375.56;5068912;28;20047;-60
2023/06/10 09:20:28;;;;;;;7.75;5.95;;;23.30;52.20;;;24.44;43.04;97368.28;5085357;28;20490;-60
2023/06/10 09:22:56;;;;;;;6.63;5.82;;;23.40;52.30;;;24.49;42.66;97372.97;5055237;28;20049;-61
2023/06/10 09:25:38;;;;;;;6.22;5.63;;;23.40;52.00;;;24.55;42.49;97367.34;5054466;28;20510;-60
2023/06/10 09:28:14;;;;;;;6.80;6.07;;;23.40;51.10;;;24.61;42.02;97365.47;5068851;28;20048;-60
2023/06/10 09:30:42;;;;;;;8.20;6.57;;;23.50;50.80;;;24.59;42.17;97364.94;5083150;28;20427;-60
2023/06/10 09:33:15;;;;;;;8.25;6.22;;;23.50;51.50;;;24.58;42.29;97360.53;5033850;28;20048;-60
2023/06/10 09:35:48;;;;;;;7.43;6.43;;;23.50;51.40;;;24.60;42.19;97355.66;5079898;28;20044;-60
2023/06/10 09:38:31;;;;;;;6.95;6.28;;;23.50;51.30;;;24.66;42.28;97362.81;5084877;28;20468;-61
2023/06/10 09:41:02;;;;;;;5.72;5.15;;;23.60;50.50;;;24.77;41.97;97366.44;5058386;28;20396;-60
2023/06/10 09:43:44;;;;;;;6.80;6.20;;;23.70;50.70;;;24.83;41.91;97362.66;5084917;28;20044;-61
2023/06/10 09:46:19;;;;;;;6.47;5.80;;;23.80;50.20;;;24.94;41.48;97363.56;5070814;28;20043;-61
2023/06/10 09:48:48;;;;;;;6.20;5.60;;;24.00;50.00;;;25.07;41.41;97362.31;5082916;28;20040;-61
2023/06/10 09:51:18;;;;;;;7.13;6.43;;;24.10;50.30;;;25.18;41.34;97363.19;5054534;28;20048;-61
2023/06/10 09:53:52;;;;;;;6.80;6.20;;;24.20;49.50;;;25.25;40.70;97356.47;5081852;28;20036;-61
2023/06/10 09:56:20;;;;;;;;;;;24.30;48.70;;;25.32;41.42;97356.25;5084188;28;20411;-61
2023/06/10 09:58:53;;;;;;;6.72;6.05;;;24.40;48.50;;;25.45;40.54;97357.66;5081361;28;19920;-61
2023/06/10 10:01:20;;;;;;;6.40;5.63;;;24.40;49.40;;;25.48;40.28;97357.97;5077666;28;20047;-62
2023/06/10 10:03:50;;;;;;;6.90;6.20;;;24.40;48.50;;;25.49;39.95;97347.88;5081541;28;20051;-61
2023/06/10 10:06:20;;;;;;;7.53;6.07;;;24.40;47.60;;;25.52;39.64;97344.63;5079285;28;20036;-61
2023/06/10 10:08:50;;;;;;;6.03;5.43;;;24.50;48.00;;;25.59;39.40;97338.94;5081399;28;20045;-63
2023/06/10 10:11:21;;;;;;;6.32;5.70;;;24.60;47.50;;;25.68;39.72;97340.88;5083279;28;20036;-61
2023/06/10 10:13:52;;;;;;;6.60;6.00;;;24.70;47.60;;;25.78;39.70;97342.03;5080717;28;20036;-64
2023/06/10 10:16:40;;;;;;;6.47;5.88;;;24.70;47.40;;;25.88;38.92;97342.88;5079336;28;20040;-61
2023/06/10 10:19:22;;;;;;;6.50;5.28;;;24.90;46.90;;;26.00;38.26;97342.69;5068161;28;20044;-60
2023/06/10 10:21:57;;;;;;;6.35;5.75;;;25.00;45.30;;;26.07;38.02;97343.22;5057390;28;20059;-60
2023/06/10 10:24:36;;;;;;;5.90;5.40;;;25.00;45.20;;;26.15;38.37;97339.16;5058194;28;20055;-61
2023/06/10 10:27:17;;;;;;;6.00;5.40;;;25.10;44.50;;;26.22;38.14;97333.47;5044869;28;20040;-62